Latest Weather Observations for Yanakie

IDV60801

Issued at 9:42 am EST Wednesday 24 July 2024 (issued every 10 minutes, with the page automatically refreshed every 10 minutes)

About weather observations | Map of weather stations | Latest weather observations for VIC | Other Formats
Station Details ID: 085301 Name: YANAKIE Lat: -38.81 Lon: 146.19 Height: 13.3 m
Data from the previous 72 hours. | See also: Recent months at Yanakie
Date/Time
EST
Temp
°C
App
Temp
°C
Dew
Point
°C
Rel
Hum
%
Delta-T
°C
Wind Press
QNH
hPa
Press
MSL
hPa
Rain since
9am
mm
Dir  Spd
km/h
Gust
km/h
Spd
kts
Gust
kts
24/09:30am 10.9 9.6 7.6 80 1.6 ESE 4 6 2 3 1018.5 1018.5 0.0
24/09:00am 9.3 7.9 7.3 87 0.9 ESE 4 6 2 3 1018.5 1018.5 0.0
24/08:30am 8.2 6.7 4.8 79 1.5 ENE 2 6 1 3 1018.5 1018.5 0.0
24/08:00am 7.4 5.4 4.5 82 1.3 ENE 4 6 2 3 1018.5 1018.5 0.0
24/07:30am 7.7 5.3 4.5 80 1.4 NE 6 9 3 5 1018.7 1018.7 0.0
24/07:00am 4.7 2.9 3.5 92 0.5 NE 2 6 1 3 1018.7 1018.7 0.0
24/06:30am 4.7 3.1 2.6 86 0.8 CALM 0 0 0 0 1018.6 1018.6 0.0
24/06:00am 5.9 3.9 2.5 79 1.4 NNE 2 6 1 3 1018.5 1018.5 0.0
24/05:30am 7.5 5.4 4.1 79 1.5 NNE 4 7 2 4 1018.2 1018.2 0.0
24/05:00am 8.2 7.0 4.4 77 1.7 CALM 0 6 0 3 1018.3 1018.3 0.0
24/04:30am 9.4 7.4 4.2 70 2.3 NNE 4 9 2 5 1018.2 1018.2 0.0
24/04:00am 8.3 6.0 4.7 78 1.6 NE 6 9 3 5 1018.2 1018.2 0.0
24/03:30am 8.2 6.1 3.9 74 1.9 ENE 4 6 2 3 1018.2 1018.2 0.0
24/03:00am 9.4 7.1 4.8 73 2.0 NE 6 9 3 5 1018.2 1018.2 0.0
24/02:30am 8.4 6.5 5.0 79 1.5 ENE 4 7 2 4 1018.5 1018.5 0.0
24/02:00am 7.9 6.0 5.0 82 1.3 ENE 4 6 2 3 1018.9 1018.9 0.0
24/01:30am 8.1 5.9 5.2 82 1.3 ENE 6 7 3 4 1019.0 1019.0 0.0
24/01:00am 8.3 6.1 5.1 80 1.4 ENE 6 7 3 4 1019.2 1019.2 0.0
24/12:30am 9.3 7.1 5.5 77 1.7 NE 6 6 3 3 1019.4 1019.4 0.0
24/12:00am 9.7 7.6 5.9 77 1.7 NE 6 9 3 5 1019.6 1019.6 0.0
 
Date/Time
EST
Temp
°C
App
Temp
°C
Dew
Point
°C
Rel
Hum
%
Delta-T
°C
Wind Press
QNH
hPa
Press
MSL
hPa
Rain since
9am
mm
Dir  Spd
km/h
Gust
km/h
Spd
kts
Gust
kts
23/11:30pm 9.6 7.3 5.8 77 1.7 ENE 7 9 4 5 1019.9 1019.9 0.0
23/11:00pm 10.0 7.8 5.4 73 2.1 NE 6 7 3 4 1020.0 1020.0 0.0
23/10:30pm 10.5 8.2 5.7 72 2.2 NE 7 9 4 5 1019.9 1019.9 0.0
23/10:00pm 10.4 8.2 6.0 74 2.0 NE 7 11 4 6 1020.0 1020.0 0.0
23/09:30pm 12.3 9.8 6.4 67 2.8 NNW 9 20 5 11 1020.1 1020.1 0.0
23/09:00pm 12.9 8.5 6.7 66 3.0 NNW 19 28 10 15 1020.0 1020.0 0.0
23/08:30pm 12.7 8.7 6.5 66 3.0 NNW 17 28 9 15 1020.2 1020.2 0.0
23/08:00pm 12.4 8.7 6.2 66 2.9 NNW 15 26 8 14 1020.1 1020.1 0.0
23/07:30pm 13.2 8.8 6.5 64 3.2 NNW 19 30 10 16 1020.1 1020.1 0.0
23/07:00pm 13.1 8.7 6.5 64 3.1 NNW 19 28 10 15 1020.3 1020.3 0.0
23/06:30pm 13.3 9.6 6.4 63 3.3 NNW 15 24 8 13 1020.2 1020.2 0.0
23/06:00pm 13.7 9.7 6.6 62 3.4 NNW 17 28 9 15 1020.1 1020.1 0.0
23/05:30pm 13.3 9.7 6.9 65 3.1 NNW 15 22 8 12 1020.0 1020.0 0.0
23/05:00pm 13.9 10.0 7.0 63 3.3 NNW 17 24 9 13 1020.0 1020.0 0.0
23/04:30pm 14.3 10.8 7.4 63 3.4 NNW 15 28 8 15 1020.1 1020.1 0.0
23/04:00pm 15.5 11.4 7.8 60 3.8 NW 19 26 10 14 1020.1 1020.1 0.0
23/03:30pm 15.6 10.5 7.6 59 4.0 NW 24 37 13 20 1020.2 1020.2 0.0
23/03:00pm 16.4 11.4 8.1 58 4.2 NW 24 39 13 21 1020.1 1020.1 0.0
23/02:30pm 16.2 10.0 7.9 58 4.2 NW 30 43 16 23 1020.1 1020.1 0.0
23/02:00pm 16.5 11.2 8.5 59 4.1 NW 26 37 14 20 1020.4 1020.4 0.0
23/01:30pm 16.4 11.7 9.1 62 3.8 NW 24 37 13 20 1020.6 1020.6 0.0
23/01:00pm 16.2 11.5 9.2 63 3.6 NW 24 35 13 19 1021.0 1021.0 0.0
23/12:30pm 15.4 11.6 9.7 69 3.0 NW 20 32 11 17 1021.5 1021.5 0.0
23/12:00pm 15.4 11.5 9.5 68 3.0 NW 20 32 11 17 1022.0 1022.0 0.0
23/11:30am 14.9 10.9 8.4 65 3.3 NW 19 30 10 16 1022.4 1022.4 0.0
23/11:00am 14.4 9.4 7.9 65 3.2 NW 24 32 13 17 1022.7 1022.7 0.0
23/10:30am 15.1 9.9 9.0 67 3.1 NW 26 37 14 20 1022.8 1022.8 0.0
23/10:00am 15.5 11.6 9.4 67 3.1 NNW 20 32 11 17 1022.8 1022.8 0.0
23/09:30am 13.9 10.9 9.1 73 2.4 NNW 15 22 8 12 1022.7 1022.7 0.0
23/09:00am 13.4 10.0 9.3 76 2.1 NNW 17 24 9 13 1022.6 1022.6 0.2
23/08:30am 13.3 9.5 9.2 76 2.1 NNW 19 26 10 14 1022.5 1022.5 0.2
23/08:00am 13.2 9.5 9.5 78 1.9 NNW 19 28 10 15 1022.4 1022.4 0.2
23/07:30am 13.1 9.5 9.7 80 1.7 NNW 19 26 10 14 1022.3 1022.3 0.2
23/07:00am 12.0 8.7 9.4 84 1.3 NNW 17 22 9 12 1022.0 1022.0 0.2
23/06:30am 11.2 8.2 9.3 88 1.0 NW 15 20 8 11 1022.0 1022.0 0.2
23/06:00am 11.4 8.4 9.3 87 1.0 NW 15 19 8 10 1021.8 1021.8 0.2
23/05:30am 11.7 8.8 9.6 87 1.1 NW 15 22 8 12 1021.6 1021.6 0.2
23/05:00am 11.9 8.2 9.6 86 1.2 NW 19 28 10 15 1021.4 1021.4 0.2
23/04:30am 12.1 8.9 9.8 86 1.2 NW 17 22 9 12 1021.3 1021.3 0.2
23/04:00am 12.5 8.8 10.0 85 1.3 NW 20 28 11 15 1021.1 1021.1 0.2
23/03:30am 12.5 8.9 10.0 85 1.3 NW 19 24 10 13 1021.1 1021.1 0.2
23/03:00am 12.7 9.2 10.1 84 1.3 NW 19 30 10 16 1021.3 1021.3 0.2
23/02:30am 13.1 9.5 10.5 84 1.4 NW 20 32 11 17 1021.3 1021.3 0.2
23/02:00am 12.5 10.3 10.7 89 0.9 NW 13 19 7 10 1021.4 1021.4 0.2
23/01:30am 12.4 10.1 10.6 89 0.9 NW 13 19 7 10 1021.5 1021.5 0.2
23/01:00am 12.7 10.1 10.8 88 1.0 NW 15 24 8 13 1021.4 1021.4 0.2
23/12:30am 13.1 9.8 11.0 87 1.1 NW 19 26 10 14 1021.6 1021.6 0.2
23/12:00am 13.4 10.5 11.1 86 1.2 NW 17 28 9 15 1021.7 1021.7 0.2
 
Date/Time
EST
Temp
°C
App
Temp
°C
Dew
Point
°C
Rel
Hum
%
Delta-T
°C
Wind Press
QNH
hPa
Press
MSL
hPa
Rain since
9am
mm
Dir  Spd
km/h
Gust
km/h
Spd
kts
Gust
kts
22/11:30pm 13.9 10.1 11.2 84 1.4 NW 22 30 12 16 1021.7 1021.7 0.2
22/11:00pm 14.3 10.2 11.5 83 1.5 NW 24 35 13 19 1021.6 1021.6 0.2
22/10:30pm 13.9 10.7 11.4 85 1.3 NW 19 30 10 16 1021.7 1021.7 0.2
22/10:00pm 13.4 9.6 11.1 86 1.2 NW 22 33 12 18 1021.8 1021.8 0.2
22/09:30pm 13.0 9.8 11.1 88 1.0 NW 19 28 10 15 1021.7 1021.7 0.2
22/09:00pm 13.0 10.9 11.1 88 1.0 NW 13 22 7 12 1021.8 1021.8 0.2
22/08:30pm 13.2 10.4 11.4 89 1.0 NW 17 28 9 15 1021.8 1021.8 0.2
22/08:00pm 13.1 10.3 11.2 88 1.0 NW 17 22 9 12 1021.7 1021.7 0.2
22/07:30pm 12.7 10.6 11.1 90 0.8 NW 13 20 7 11 1021.4 1021.4 0.2
22/07:00pm 12.7 9.7 10.8 88 1.0 NW 17 26 9 14 1021.1 1021.1 0.2
22/06:30pm 12.8 9.4 10.7 87 1.1 NW 19 30 10 16 1020.8 1020.8 0.2
22/06:00pm 13.0 10.1 10.9 87 1.1 NW 17 26 9 14 1020.9 1020.9 0.2
22/05:30pm 13.4 10.0 11.1 86 1.2 NW 20 32 11 17 1020.5 1020.5 0.2
22/05:00pm 13.0 10.9 11.1 88 1.0 NW 13 20 7 11 1020.4 1020.4 0.2
22/04:30pm 14.2 10.5 11.5 84 1.4 NW 22 37 12 20 1020.3 1020.3 0.2
22/04:00pm 14.4 11.2 11.9 85 1.3 NW 20 26 11 14 1020.0 1020.0 0.2
22/03:30pm 14.6 11.4 11.9 84 1.5 NW 20 28 11 15 1020.1 1020.1 0.2
22/03:00pm 14.7 11.1 12.0 84 1.5 NW 22 32 12 17 1019.9 1019.9 0.2
22/02:30pm 15.1 11.6 12.1 82 1.6 NW 22 30 12 16 1019.6 1019.6 0.2
22/02:00pm 14.9 10.1 11.7 81 1.7 NW 28 37 15 20 1019.5 1019.5 0.2
22/01:30pm 15.4 10.3 11.8 79 1.9 NW 30 41 16 22 1019.4 1019.4 0.2
22/01:00pm 15.7 10.6 11.9 78 2.1 NW 30 43 16 23 1019.5 1019.5 0.2
22/12:30pm 15.2 10.5 12.0 81 1.7 NW 28 41 15 22 1020.2 1020.2 0.2
22/12:00pm 15.0 9.5 11.8 81 1.7 NW 32 46 17 25 1020.5 1020.5 0.2
22/11:30am 15.7 10.7 12.1 79 2.0 NW 30 46 16 25 1020.2 1020.2 0.2
22/11:00am 14.9 9.7 11.5 80 1.8 NW 30 44 16 24 1020.1 1020.1 0.2
22/10:30am 14.9 9.9 12.2 84 1.5 NW 30 43 16 23 1020.2 1020.2 0.0
22/10:00am 13.5 9.3 11.2 86 1.2 NW 24 35 13 19 1020.2 1020.2 0.0
22/09:30am 13.1 8.9 11.0 87 1.1 NW 24 35 13 19 1020.2 1020.2 0.0
22/09:00am 12.8 8.2 10.9 88 1.0 NW 26 39 14 21 1019.9 1019.9 0.4
22/08:30am 12.3 8.4 10.7 90 0.8 NW 22 30 12 16 1019.7 1019.7 0.4
22/08:00am 11.8 8.2 10.5 92 0.7 NW 20 28 11 15 1019.3 1019.3 0.4
22/07:30am 11.5 7.5 10.4 93 0.6 NW 22 33 12 18 1019.0 1019.0 0.4
22/07:00am 11.5 8.1 10.4 93 0.6 NW 19 30 10 16 1018.9 1018.9 0.4
22/06:30am 11.5 8.1 10.6 94 0.5 NW 19 24 10 13 1018.6 1018.6 0.4
22/06:00am 11.9 7.9 10.6 92 0.7 NW 22 30 12 16 1018.3 1018.3 0.4
22/05:30am 12.4 8.6 11.0 91 0.7 NW 22 35 12 19 1018.0 1018.0 0.4
22/05:00am 12.0 8.4 10.7 92 0.7 NW 20 26 11 14 1017.8 1017.8 0.4
22/04:30am 12.1 8.3 11.0 93 0.6 NW 22 32 12 17 1017.6 1017.6 0.4
22/04:00am 11.9 7.8 11.3 96 0.3 NW 24 30 13 16 1017.8 1017.8 0.4
22/03:30am 12.0 7.4 11.1 94 0.5 NW 26 37 14 20 1017.7 1017.7 0.4
22/03:00am 12.0 7.7 10.9 93 0.6 NW 24 35 13 19 1017.8 1017.8 0.4
22/02:30am 12.0 7.8 11.1 94 0.5 NW 24 32 13 17 1017.8 1017.8 0.4
22/02:00am 11.9 8.1 11.1 95 0.4 NW 22 32 12 17 1017.8 1017.8 0.4
22/01:30am 12.0 8.1 10.7 92 0.7 NW 22 33 12 18 1017.8 1017.8 0.0
22/01:00am 12.3 7.9 10.4 88 1.0 NW 24 35 13 19 1017.6 1017.6 0.0
22/12:30am 11.9 7.8 10.1 89 0.9 NW 22 32 12 17 1017.7 1017.7 0.0
22/12:00am 11.9 7.8 10.1 89 0.9 NW 22 30 12 16 1017.8 1017.8 0.0
 
Date/Time
EST
Temp
°C
App
Temp
°C
Dew
Point
°C
Rel
Hum
%
Delta-T
°C
Wind Press
QNH
hPa
Press
MSL
hPa
Rain since
9am
mm
Dir  Spd
km/h
Gust
km/h
Spd
kts
Gust
kts
21/11:30pm 12.2 7.8 10.3 88 1.0 NW 24 33 13 18 1017.7 1017.7 0.0
21/11:00pm 12.3 7.6 10.5 89 0.9 NW 26 37 14 20 1017.7 1017.7 0.0
21/10:30pm 11.9 8.2 10.1 89 0.9 NW 20 33 11 18 1017.6 1017.6 0.0
21/10:00pm 11.9 7.3 9.8 87 1.1 NW 24 37 13 20 1017.6 1017.6 0.0
21/09:30pm 11.7 7.5 9.8 88 1.0 NW 22 32 12 17 1017.5 1017.5 0.0
21/09:00pm 11.5 7.3 9.6 88 1.0 NNW 22 32 12 17 1017.5 1017.5 0.0
21/08:30pm 11.5 7.6 9.6 88 1.0 NNW 20 30 11 16 1017.5 1017.5 0.0
21/08:00pm 11.4 7.5 9.3 87 1.1 NNW 20 32 11 17 1017.5 1017.5 0.0
21/07:30pm 12.0 7.8 9.6 85 1.2 NNW 22 32 12 17 1017.5 1017.5 0.0
21/07:00pm 12.1 7.5 9.7 85 1.2 NW 24 32 13 17 1017.3 1017.3 0.0
21/06:30pm 12.0 8.9 10.2 89 0.9 NW 17 26 9 14 1017.2 1017.2 0.0
21/06:00pm 11.9 9.5 10.1 89 0.9 NW 13 19 7 10 1017.0 1017.0 0.0
21/05:30pm 12.3 9.9 10.2 87 1.1 NW 13 19 7 10 1016.7 1016.7 0.0
21/05:00pm 12.7 10.1 10.6 87 1.1 NW 15 22 8 12 1016.6 1016.6 0.0
21/04:30pm 12.8 10.2 10.7 87 1.1 NW 15 20 8 11 1016.4 1016.4 0.0
21/04:00pm 13.5 10.0 10.9 84 1.4 NW 20 28 11 15 1016.1 1016.1 0.0
21/03:30pm 14.3 10.2 11.3 82 1.6 WNW 24 35 13 19 1016.0 1016.0 0.0
21/03:00pm 14.7 10.7 11.7 82 1.6 NW 24 33 13 18 1015.8 1015.8 0.0
21/02:30pm 13.9 9.3 11.2 84 1.4 WNW 26 33 14 18 1015.6 1015.6 0.0
21/02:00pm 14.0 9.5 11.5 85 1.3 WNW 26 37 14 20 1015.5 1015.5 0.0
21/01:30pm 13.4 8.1 11.3 87 1.1 NW 30 39 16 21 1015.5 1015.5 0.0
21/01:00pm 12.6 6.7 11.0 90 0.8 NW 33 43 18 23 1015.8 1015.8 0.0
21/12:30pm 13.5 8.7 11.7 89 1.0 WNW 28 37 15 20 1016.0 1016.0 0.0
21/12:00pm 12.5 6.6 10.6 88 1.0 NW 32 46 17 25 1016.2 1016.2 0.0
21/11:30am 12.8 7.0 10.9 88 1.0 WNW 32 43 17 23 1016.4 1016.4 0.0
21/11:00am 12.7 8.9 11.1 90 0.8 NW 22 32 12 17 1016.7 1016.7 0.0
21/10:30am 11.8 7.4 10.5 92 0.7 NW 24 35 13 19 1016.8 1016.8 0.0
21/10:00am 11.1 6.6 10.2 94 0.5 NW 24 33 13 18 1016.7 1016.7 0.0

Other formats

Comma delimited format used in spreadsheet applications
http://www.bom.gov.au/fwo/IDV60801/IDV60801.94911.axf

JavaScript Object Notation format (JSON) in row-major order
http://www.bom.gov.au/fwo/IDV60801/IDV60801.94911.json

Data quality

Most of these data are generated automatically and are frequently updated. Quality checks on data are not normally performed. It is possible for incorrect values to appear. Refer to information at About Latest Weather Observations and please check the disclaimer before using these data.